sensor_id;sensor_type;location;lat;lon;timestamp;temperature;humidity
25568;DHT22;13455;51.480;7.594;2023-02-26T00:00:09;0.50;99.90
25568;DHT22;13455;51.480;7.594;2023-02-26T00:02:43;-0.20;99.90
25568;DHT22;13455;51.480;7.594;2023-02-26T00:05:11;-0.20;99.90
25568;DHT22;13455;51.480;7.594;2023-02-26T00:07:37;-0.30;99.90
25568;DHT22;13455;51.480;7.594;2023-02-26T00:10:04;-0.30;99.90
25568;DHT22;13455;51.480;7.594;2023-02-26T00:12:30;-0.30;99.90
25568;DHT22;13455;51.480;7.594;2023-02-26T00:14:56;-0.30;99.90
25568;DHT22;13455;51.480;7.594;2023-02-26T00:20:09;-0.40;99.90
25568;DHT22;13455;51.480;7.594;2023-02-26T00:25:02;-0.40;99.90
25568;DHT22;13455;51.480;7.594;2023-02-26T00:27:28;-0.30;99.90
25568;DHT22;13455;51.480;7.594;2023-02-26T00:29:53;-0.30;99.90
25568;DHT22;13455;51.480;7.594;2023-02-26T00:42:17;-0.40;99.90
25568;DHT22;13455;51.480;7.594;2023-02-26T00:44:44;-0.60;99.90
25568;DHT22;13455;51.480;7.594;2023-02-26T00:50:09;0.00;99.90
25568;DHT22;13455;51.480;7.594;2023-02-26T00:52:52;-0.30;99.90
25568;DHT22;13455;51.480;7.594;2023-02-26T00:55:21;0.60;99.90
25568;DHT22;13455;51.480;7.594;2023-02-26T00:57:47;-0.40;99.90
25568;DHT22;13455;51.480;7.594;2023-02-26T01:00:13;-0.50;99.90
25568;DHT22;13455;51.480;7.594;2023-02-26T01:02:40;-0.50;99.90
25568;DHT22;13455;51.480;7.594;2023-02-26T01:05:07;-0.50;99.90
25568;DHT22;13455;51.480;7.594;2023-02-26T01:07:58;0.70;99.90
25568;DHT22;13455;51.480;7.594;2023-02-26T01:10:26;-0.50;99.90
25568;DHT22;13455;51.480;7.594;2023-02-26T01:12:53;-0.60;99.90
25568;DHT22;13455;51.480;7.594;2023-02-26T01:15:22;-0.70;99.90
25568;DHT22;13455;51.480;7.594;2023-02-26T01:20:53;-0.20;99.90
25568;DHT22;13455;51.480;7.594;2023-02-26T01:23:32;-0.50;99.90
25568;DHT22;13455;51.480;7.594;2023-02-26T01:26:11;-0.50;99.90
25568;DHT22;13455;51.480;7.594;2023-02-26T01:28:39;-0.60;99.90
25568;DHT22;13455;51.480;7.594;2023-02-26T01:31:06;-0.40;99.90
25568;DHT22;13455;51.480;7.594;2023-02-26T01:33:52;-0.40;99.90
25568;DHT22;13455;51.480;7.594;2023-02-26T01:42:03;-0.50;99.90
25568;DHT22;13455;51.480;7.594;2023-02-26T02:32:17;-0.90;99.90
25568;DHT22;13455;51.480;7.594;2023-02-26T02:34:48;-0.90;99.90
25568;DHT22;13455;51.480;7.594;2023-02-26T02:37:24;0.10;99.90
25568;DHT22;13455;51.480;7.594;2023-02-26T02:40:07;-1.00;99.90
25568;DHT22;13455;51.480;7.594;2023-02-26T02:42:34;-1.00;99.90
25568;DHT22;13455;51.480;7.594;2023-02-26T02:45:09;-1.00;99.90
25568;DHT22;13455;51.480;7.594;2023-02-26T02:47:41;-1.00;99.90
25568;DHT22;13455;51.480;7.594;2023-02-26T02:51:10;-1.00;99.90
25568;DHT22;13455;51.480;7.594;2023-02-26T02:53:09;-1.00;99.90
25568;DHT22;13455;51.480;7.594;2023-02-26T02:55:47;-1.00;99.90
25568;DHT22;13455;51.480;7.594;2023-02-26T02:58:21;-1.00;99.90
25568;DHT22;13455;51.480;7.594;2023-02-26T03:00:49;-1.00;99.90
25568;DHT22;13455;51.480;7.594;2023-02-26T03:03:31;-1.00;99.90
25568;DHT22;13455;51.480;7.594;2023-02-26T03:05:58;-1.00;99.90
25568;DHT22;13455;51.480;7.594;2023-02-26T03:08:29;-1.00;99.90
25568;DHT22;13455;51.480;7.594;2023-02-26T03:10:56;-1.00;99.90
25568;DHT22;13455;51.480;7.594;2023-02-26T03:13:24;-1.10;99.90
25568;DHT22;13455;51.480;7.594;2023-02-26T03:16:16;-1.10;99.90
25568;DHT22;13455;51.480;7.594;2023-02-26T03:21:45;-1.10;99.90
25568;DHT22;13455;51.480;7.594;2023-02-26T03:24:15;-1.10;99.90
25568;DHT22;13455;51.480;7.594;2023-02-26T03:27:11;-1.10;99.90
25568;DHT22;13455;51.480;7.594;2023-02-26T03:32:26;-1.10;99.90
25568;DHT22;13455;51.480;7.594;2023-02-26T03:35:07;-1.00;99.90
25568;DHT22;13455;51.480;7.594;2023-02-26T03:37:43;-1.00;99.90
25568;DHT22;13455;51.480;7.594;2023-02-26T03:40:26;-1.00;99.90
25568;DHT22;13455;51.480;7.594;2023-02-26T03:43:06;-1.00;99.90
25568;DHT22;13455;51.480;7.594;2023-02-26T03:45:34;-1.00;99.90
25568;DHT22;13455;51.480;7.594;2023-02-26T03:48:06;-1.00;99.90
25568;DHT22;13455;51.480;7.594;2023-02-26T03:53:01;-1.00;99.90
25568;DHT22;13455;51.480;7.594;2023-02-26T03:55:32;-0.90;99.90
25568;DHT22;13455;51.480;7.594;2023-02-26T03:57:59;-0.90;99.90
25568;DHT22;13455;51.480;7.594;2023-02-26T04:00:26;-0.90;99.90
25568;DHT22;13455;51.480;7.594;2023-02-26T04:03:14;-0.90;99.90
25568;DHT22;13455;51.480;7.594;2023-02-26T04:05:46;-1.00;99.90
25568;DHT22;13455;51.480;7.594;2023-02-26T04:08:12;-0.90;99.90
25568;DHT22;13455;51.480;7.594;2023-02-26T04:10:50;-0.90;99.90
25568;DHT22;13455;51.480;7.594;2023-02-26T04:13:16;-1.80;99.90
25568;DHT22;13455;51.480;7.594;2023-02-26T04:15:42;-1.00;99.90
25568;DHT22;13455;51.480;7.594;2023-02-26T04:18:08;-1.00;99.90
25568;DHT22;13455;51.480;7.594;2023-02-26T04:20:33;-1.00;99.90
25568;DHT22;13455;51.480;7.594;2023-02-26T04:22:59;-1.10;99.90
25568;DHT22;13455;51.480;7.594;2023-02-26T04:25:25;-1.10;99.90
25568;DHT22;13455;51.480;7.594;2023-02-26T04:27:50;-1.10;99.90
25568;DHT22;13455;51.480;7.594;2023-02-26T04:30:16;-1.10;99.90
25568;DHT22;13455;51.480;7.594;2023-02-26T04:32:42;-1.10;99.90
25568;DHT22;13455;51.480;7.594;2023-02-26T04:35:08;-1.10;99.90
25568;DHT22;13455;51.480;7.594;2023-02-26T04:37:33;-1.10;99.90
25568;DHT22;13455;51.480;7.594;2023-02-26T04:39:59;-1.10;99.90
25568;DHT22;13455;51.480;7.594;2023-02-26T04:42:25;-1.20;99.90
25568;DHT22;13455;51.480;7.594;2023-02-26T04:44:50;-1.20;99.90
25568;DHT22;13455;51.480;7.594;2023-02-26T04:47:16;-1.20;99.90
25568;DHT22;13455;51.480;7.594;2023-02-26T04:49:42;-1.20;99.90
25568;DHT22;13455;51.480;7.594;2023-02-26T04:52:07;-1.20;99.90
25568;DHT22;13455;51.480;7.594;2023-02-26T04:54:33;-1.30;99.90
25568;DHT22;13455;51.480;7.594;2023-02-26T04:56:58;-1.20;99.90
25568;DHT22;13455;51.480;7.594;2023-02-26T04:59:24;-1.30;99.90
25568;DHT22;13455;51.480;7.594;2023-02-26T05:01:50;-1.30;99.90
25568;DHT22;13455;51.480;7.594;2023-02-26T05:04:15;-1.30;99.90
25568;DHT22;13455;51.480;7.594;2023-02-26T05:06:41;-1.30;99.90
25568;DHT22;13455;51.480;7.594;2023-02-26T05:09:06;-1.30;99.90
25568;DHT22;13455;51.480;7.594;2023-02-26T05:11:32;-1.30;99.90
25568;DHT22;13455;51.480;7.594;2023-02-26T05:13:58;-1.40;99.90
25568;DHT22;13455;51.480;7.594;2023-02-26T05:16:23;-1.40;99.90
25568;DHT22;13455;51.480;7.594;2023-02-26T05:18:49;-1.40;99.90
25568;DHT22;13455;51.480;7.594;2023-02-26T05:21:15;-1.40;99.90
25568;DHT22;13455;51.480;7.594;2023-02-26T05:23:40;-1.40;99.90
25568;DHT22;13455;51.480;7.594;2023-02-26T05:26:06;-1.40;99.90
25568;DHT22;13455;51.480;7.594;2023-02-26T05:28:31;-1.50;99.90
25568;DHT22;13455;51.480;7.594;2023-02-26T05:30:58;-1.40;99.90
25568;DHT22;13455;51.480;7.594;2023-02-26T05:33:24;-1.50;99.90
25568;DHT22;13455;51.480;7.594;2023-02-26T05:35:50;-1.50;99.90
25568;DHT22;13455;51.480;7.594;2023-02-26T05:38:16;-1.50;99.90
25568;DHT22;13455;51.480;7.594;2023-02-26T05:40:42;-1.60;99.90
25568;DHT22;13455;51.480;7.594;2023-02-26T05:43:07;-1.60;99.90
25568;DHT22;13455;51.480;7.594;2023-02-26T05:45:33;-1.60;99.90
25568;DHT22;13455;51.480;7.594;2023-02-26T05:47:59;-1.60;99.90
25568;DHT22;13455;51.480;7.594;2023-02-26T05:50:24;-1.60;99.90
25568;DHT22;13455;51.480;7.594;2023-02-26T05:52:51;-1.60;99.90
25568;DHT22;13455;51.480;7.594;2023-02-26T05:55:17;-1.70;99.90
25568;DHT22;13455;51.480;7.594;2023-02-26T05:57:43;-1.70;99.90
25568;DHT22;13455;51.480;7.594;2023-02-26T06:00:10;-1.70;99.90
25568;DHT22;13455;51.480;7.594;2023-02-26T06:02:35;-1.70;99.90
25568;DHT22;13455;51.480;7.594;2023-02-26T06:05:01;-1.70;99.90
25568;DHT22;13455;51.480;7.594;2023-02-26T06:07:27;-1.70;99.90
25568;DHT22;13455;51.480;7.594;2023-02-26T06:09:55;-1.70;99.90
25568;DHT22;13455;51.480;7.594;2023-02-26T06:12:20;-1.00;99.90
25568;DHT22;13455;51.480;7.594;2023-02-26T06:14:46;-1.80;99.90
25568;DHT22;13455;51.480;7.594;2023-02-26T06:17:11;-1.80;99.90
25568;DHT22;13455;51.480;7.594;2023-02-26T06:19:37;-1.80;99.90
25568;DHT22;13455;51.480;7.594;2023-02-26T06:22:03;-1.80;99.90
25568;DHT22;13455;51.480;7.594;2023-02-26T06:24:28;-1.90;99.90
25568;DHT22;13455;51.480;7.594;2023-02-26T06:26:54;-1.90;99.90
25568;DHT22;13455;51.480;7.594;2023-02-26T06:29:20;-1.90;99.90
25568;DHT22;13455;51.480;7.594;2023-02-26T06:31:46;-1.90;99.90
25568;DHT22;13455;51.480;7.594;2023-02-26T06:34:12;-0.90;99.90
25568;DHT22;13455;51.480;7.594;2023-02-26T06:36:37;-2.70;99.90
25568;DHT22;13455;51.480;7.594;2023-02-26T06:39:04;-1.90;99.90
25568;DHT22;13455;51.480;7.594;2023-02-26T06:41:29;-2.00;99.90
25568;DHT22;13455;51.480;7.594;2023-02-26T06:43:55;-1.90;99.90
25568;DHT22;13455;51.480;7.594;2023-02-26T06:46:21;-2.00;99.90
25568;DHT22;13455;51.480;7.594;2023-02-26T06:48:46;-2.00;99.90
25568;DHT22;13455;51.480;7.594;2023-02-26T06:51:12;-2.00;99.90
25568;DHT22;13455;51.480;7.594;2023-02-26T06:53:38;-1.90;99.90
25568;DHT22;13455;51.480;7.594;2023-02-26T06:56:04;-1.90;99.90
25568;DHT22;13455;51.480;7.594;2023-02-26T06:58:29;-1.90;99.90
25568;DHT22;13455;51.480;7.594;2023-02-26T07:00:55;-1.90;99.90
25568;DHT22;13455;51.480;7.594;2023-02-26T07:03:21;-1.90;99.90
25568;DHT22;13455;51.480;7.594;2023-02-26T07:05:47;-1.80;99.90
25568;DHT22;13455;51.480;7.594;2023-02-26T07:08:13;-1.80;99.90
25568;DHT22;13455;51.480;7.594;2023-02-26T07:10:40;-1.70;99.90
25568;DHT22;13455;51.480;7.594;2023-02-26T07:13:06;-1.80;99.90
25568;DHT22;13455;51.480;7.594;2023-02-26T07:15:31;-1.30;99.90
25568;DHT22;13455;51.480;7.594;2023-02-26T07:17:57;-1.80;99.90
25568;DHT22;13455;51.480;7.594;2023-02-26T07:20:25;-0.50;99.90
25568;DHT22;13455;51.480;7.594;2023-02-26T07:22:50;-1.80;99.90
25568;DHT22;13455;51.480;7.594;2023-02-26T07:25:16;-1.50;99.90
25568;DHT22;13455;51.480;7.594;2023-02-26T07:27:42;-0.70;99.90
25568;DHT22;13455;51.480;7.594;2023-02-26T07:30:08;-1.30;99.90
25568;DHT22;13455;51.480;7.594;2023-02-26T07:32:34;-1.50;99.90
25568;DHT22;13455;51.480;7.594;2023-02-26T07:35:00;-1.50;99.90
25568;DHT22;13455;51.480;7.594;2023-02-26T07:37:26;-1.50;99.90
25568;DHT22;13455;51.480;7.594;2023-02-26T07:39:53;-1.50;99.90
25568;DHT22;13455;51.480;7.594;2023-02-26T07:42:19;-1.40;99.90
25568;DHT22;13455;51.480;7.594;2023-02-26T07:44:45;-1.20;99.90
25568;DHT22;13455;51.480;7.594;2023-02-26T07:47:11;-1.10;99.90
25568;DHT22;13455;51.480;7.594;2023-02-26T07:49:37;-1.30;99.90
25568;DHT22;13455;51.480;7.594;2023-02-26T07:52:02;-1.30;99.90
25568;DHT22;13455;51.480;7.594;2023-02-26T07:54:28;-0.80;99.90
25568;DHT22;13455;51.480;7.594;2023-02-26T07:56:54;-1.60;99.90
25568;DHT22;13455;51.480;7.594;2023-02-26T07:59:20;0.30;99.90
25568;DHT22;13455;51.480;7.594;2023-02-26T08:01:48;0.10;99.90
25568;DHT22;13455;51.480;7.594;2023-02-26T08:04:14;-1.40;99.90
25568;DHT22;13455;51.480;7.594;2023-02-26T08:06:39;-0.80;99.90
25568;DHT22;13455;51.480;7.594;2023-02-26T08:09:05;-0.80;99.90
25568;DHT22;13455;51.480;7.594;2023-02-26T08:11:31;-0.80;99.90
25568;DHT22;13455;51.480;7.594;2023-02-26T08:13:59;-0.30;99.90
25568;DHT22;13455;51.480;7.594;2023-02-26T08:16:25;-0.80;99.90
25568;DHT22;13455;51.480;7.594;2023-02-26T08:18:51;-0.70;99.90
25568;DHT22;13455;51.480;7.594;2023-02-26T08:21:16;-0.60;99.90
25568;DHT22;13455;51.480;7.594;2023-02-26T08:23:42;-0.50;99.90
25568;DHT22;13455;51.480;7.594;2023-02-26T08:26:09;1.20;99.90
25568;DHT22;13455;51.480;7.594;2023-02-26T08:28:35;-0.10;99.90
25568;DHT22;13455;51.480;7.594;2023-02-26T08:31:04;-0.50;99.90
25568;DHT22;13455;51.480;7.594;2023-02-26T08:33:31;-0.50;99.90
25568;DHT22;13455;51.480;7.594;2023-02-26T08:35:56;-0.30;99.90
25568;DHT22;13455;51.480;7.594;2023-02-26T08:38:24;-0.20;99.90
25568;DHT22;13455;51.480;7.594;2023-02-26T08:40:50;-0.40;99.90
25568;DHT22;13455;51.480;7.594;2023-02-26T08:43:17;-0.10;99.90
25568;DHT22;13455;51.480;7.594;2023-02-26T08:45:44;-0.20;99.90
25568;DHT22;13455;51.480;7.594;2023-02-26T08:48:09;1.10;99.90
25568;DHT22;13455;51.480;7.594;2023-02-26T08:50:35;0.10;99.90
25568;DHT22;13455;51.480;7.594;2023-02-26T08:53:01;0.20;99.90
25568;DHT22;13455;51.480;7.594;2023-02-26T08:55:27;0.20;99.90
25568;DHT22;13455;51.480;7.594;2023-02-26T08:57:52;0.40;99.90
25568;DHT22;13455;51.480;7.594;2023-02-26T09:00:18;0.40;99.90
25568;DHT22;13455;51.480;7.594;2023-02-26T09:02:45;0.50;99.90
25568;DHT22;13455;51.480;7.594;2023-02-26T09:05:10;1.40;99.90
25568;DHT22;13455;51.480;7.594;2023-02-26T09:07:37;0.70;99.90
25568;DHT22;13455;51.480;7.594;2023-02-26T09:10:04;-0.60;99.90
25568;DHT22;13455;51.480;7.594;2023-02-26T09:12:30;0.80;99.90
25568;DHT22;13455;51.480;7.594;2023-02-26T09:14:56;0.80;99.90
25568;DHT22;13455;51.480;7.594;2023-02-26T09:17:24;1.00;99.90
25568;DHT22;13455;51.480;7.594;2023-02-26T09:19:50;1.00;99.90
25568;DHT22;13455;51.480;7.594;2023-02-26T09:22:15;1.20;99.90
25568;DHT22;13455;51.480;7.594;2023-02-26T09:24:41;1.30;99.90
25568;DHT22;13455;51.480;7.594;2023-02-26T09:27:07;1.30;99.90
25568;DHT22;13455;51.480;7.594;2023-02-26T09:29:33;1.40;99.90
25568;DHT22;13455;51.480;7.594;2023-02-26T09:31:58;1.50;99.90
25568;DHT22;13455;51.480;7.594;2023-02-26T09:34:24;1.50;99.90
25568;DHT22;13455;51.480;7.594;2023-02-26T09:36:50;1.50;99.90
25568;DHT22;13455;51.480;7.594;2023-02-26T09:39:15;0.60;99.90
25568;DHT22;13455;51.480;7.594;2023-02-26T09:41:52;1.70;99.90
25568;DHT22;13455;51.480;7.594;2023-02-26T09:44:31;2.00;99.90
25568;DHT22;13455;51.480;7.594;2023-02-26T09:47:20;2.00;99.90
25568;DHT22;13455;51.480;7.594;2023-02-26T09:55:30;2.20;99.90
25568;DHT22;13455;51.480;7.594;2023-02-26T09:58:01;2.20;99.90
25568;DHT22;13455;51.480;7.594;2023-02-26T10:00:46;2.80;99.90
25568;DHT22;13455;51.480;7.594;2023-02-26T10:06:27;2.40;99.90
25568;DHT22;13455;51.480;7.594;2023-02-26T10:11:35;2.40;99.90
25568;DHT22;13455;51.480;7.594;2023-02-26T10:16:41;2.50;99.90
25568;DHT22;13455;51.480;7.594;2023-02-26T10:19:13;2.60;99.90
25568;DHT22;13455;51.480;7.594;2023-02-26T10:21:46;2.60;99.90
25568;DHT22;13455;51.480;7.594;2023-02-26T10:26:54;2.80;99.90
25568;DHT22;13455;51.480;7.594;2023-02-26T10:29:39;3.00;99.90
25568;DHT22;13455;51.480;7.594;2023-02-26T10:32:27;3.10;99.90
25568;DHT22;13455;51.480;7.594;2023-02-26T10:42:47;3.60;99.90
25568;DHT22;13455;51.480;7.594;2023-02-26T10:45:32;3.60;99.90
25568;DHT22;13455;51.480;7.594;2023-02-26T10:50:49;4.00;99.90
25568;DHT22;13455;51.480;7.594;2023-02-26T10:53:14;4.20;99.90
25568;DHT22;13455;51.480;7.594;2023-02-26T10:58:14;4.20;99.90
25568;DHT22;13455;51.480;7.594;2023-02-26T11:00:42;4.50;99.90
25568;DHT22;13455;51.480;7.594;2023-02-26T11:03:18;4.40;99.90
25568;DHT22;13455;51.480;7.594;2023-02-26T11:15:56;4.40;99.90
25568;DHT22;13455;51.480;7.594;2023-02-26T11:20:57;4.80;99.90
25568;DHT22;13455;51.480;7.594;2023-02-26T11:23:26;5.30;99.90
25568;DHT22;13455;51.480;7.594;2023-02-26T11:25:58;5.20;99.90
25568;DHT22;13455;51.480;7.594;2023-02-26T11:28:45;5.30;99.90
25568;DHT22;13455;51.480;7.594;2023-02-26T11:31:15;5.10;99.90
25568;DHT22;13455;51.480;7.594;2023-02-26T11:36:25;5.20;99.90
25568;DHT22;13455;51.480;7.594;2023-02-26T11:38:56;5.40;99.90
25568;DHT22;13455;51.480;7.594;2023-02-26T11:44:18;5.80;99.90
25568;DHT22;13455;51.480;7.594;2023-02-26T11:49:23;6.00;99.90
25568;DHT22;13455;51.480;7.594;2023-02-26T11:54:34;6.60;99.90
25568;DHT22;13455;51.480;7.594;2023-02-26T11:57:06;6.80;99.90
25568;DHT22;13455;51.480;7.594;2023-02-26T12:09:35;7.60;97.40
25568;DHT22;13455;51.480;7.594;2023-02-26T12:20:14;8.10;92.30
25568;DHT22;13455;51.480;7.594;2023-02-26T12:51:18;9.10;84.70
25568;DHT22;13455;51.480;7.594;2023-02-26T12:57:17;9.40;75.70
25568;DHT22;13455;51.480;7.594;2023-02-26T13:22:14;9.20;69.80
25568;DHT22;13455;51.480;7.594;2023-02-26T13:25:23;9.10;75.70
25568;DHT22;13455;51.480;7.594;2023-02-26T13:27:46;9.80;72.90
25568;DHT22;13455;51.480;7.594;2023-02-26T13:30:39;9.40;69.60
25568;DHT22;13455;51.480;7.594;2023-02-26T13:33:16;9.60;75.10
25568;DHT22;13455;51.480;7.594;2023-02-26T13:35:44;9.80;76.20
25568;DHT22;13455;51.480;7.594;2023-02-26T13:38:49;10.20;70.40
25568;DHT22;13455;51.480;7.594;2023-02-26T13:44:04;10.30;66.30
25568;DHT22;13455;51.480;7.594;2023-02-26T13:51:48;10.70;63.60
25568;DHT22;13455;51.480;7.594;2023-02-26T13:57:21;10.80;63.00
25568;DHT22;13455;51.480;7.594;2023-02-26T13:59:52;11.40;84.30
25568;DHT22;13455;51.480;7.594;2023-02-26T14:10:17;10.50;59.90
25568;DHT22;13455;51.480;7.594;2023-02-26T14:24:13;8.90;63.60
25568;DHT22;13455;51.480;7.594;2023-02-26T14:26:44;8.80;64.00
25568;DHT22;13455;51.480;7.594;2023-02-26T14:34:27;7.90;65.70
25568;DHT22;13455;51.480;7.594;2023-02-26T14:36:59;7.90;66.30
25568;DHT22;13455;51.480;7.594;2023-02-26T14:39:30;7.70;66.80
25568;DHT22;13455;51.480;7.594;2023-02-26T14:42:02;7.50;67.40
25568;DHT22;13455;51.480;7.594;2023-02-26T14:44:42;7.50;67.40
25568;DHT22;13455;51.480;7.594;2023-02-26T14:47:09;7.30;69.40
25568;DHT22;13455;51.480;7.594;2023-02-26T14:49:39;7.10;71.20
25568;DHT22;13455;51.480;7.594;2023-02-26T15:02:40;6.60;88.20
25568;DHT22;13455;51.480;7.594;2023-02-26T15:26:28;6.90;91.50
25568;DHT22;13455;51.480;7.594;2023-02-26T16:26:33;4.80;89.80
25568;DHT22;13455;51.480;7.594;2023-02-26T17:49:29;3.30;92.00
25568;DHT22;13455;51.480;7.594;2023-02-26T17:59:14;3.20;99.90
25568;DHT22;13455;51.480;7.594;2023-02-26T18:01:40;3.10;93.20
25568;DHT22;13455;51.480;7.594;2023-02-26T18:04:05;3.00;93.50
25568;DHT22;13455;51.480;7.594;2023-02-26T18:06:36;3.00;94.00
25568;DHT22;13455;51.480;7.594;2023-02-26T18:09:03;3.00;93.90
25568;DHT22;13455;51.480;7.594;2023-02-26T18:11:30;2.90;94.40
25568;DHT22;13455;51.480;7.594;2023-02-26T18:13:57;2.80;94.60
25568;DHT22;13455;51.480;7.594;2023-02-26T18:16:29;2.90;95.00
25568;DHT22;13455;51.480;7.594;2023-02-26T18:18:57;2.80;95.30
25568;DHT22;13455;51.480;7.594;2023-02-26T18:21:24;2.70;95.50
25568;DHT22;13455;51.480;7.594;2023-02-26T18:23:51;2.70;96.30
25568;DHT22;13455;51.480;7.594;2023-02-26T18:28:47;2.60;96.50
25568;DHT22;13455;51.480;7.594;2023-02-26T18:41:03;2.60;97.70
25568;DHT22;13455;51.480;7.594;2023-02-26T18:43:29;2.60;98.00
25568;DHT22;13455;51.480;7.594;2023-02-26T18:45:54;2.60;98.10
25568;DHT22;13455;51.480;7.594;2023-02-26T18:48:25;2.60;98.40
25568;DHT22;13455;51.480;7.594;2023-02-26T18:50:51;2.70;98.70
25568;DHT22;13455;51.480;7.594;2023-02-26T18:53:17;2.60;99.10
25568;DHT22;13455;51.480;7.594;2023-02-26T18:55:49;2.60;99.70
25568;DHT22;13455;51.480;7.594;2023-02-26T18:58:15;2.60;99.60
25568;DHT22;13455;51.480;7.594;2023-02-26T19:00:42;2.60;99.90
25568;DHT22;13455;51.480;7.594;2023-02-26T19:03:07;2.50;99.90
25568;DHT22;13455;51.480;7.594;2023-02-26T19:05:34;2.50;99.90
25568;DHT22;13455;51.480;7.594;2023-02-26T19:08:00;2.50;99.90
25568;DHT22;13455;51.480;7.594;2023-02-26T19:10:26;2.40;99.90
25568;DHT22;13455;51.480;7.594;2023-02-26T19:15:20;2.40;99.90
25568;DHT22;13455;51.480;7.594;2023-02-26T19:17:46;2.40;99.90
25568;DHT22;13455;51.480;7.594;2023-02-26T19:20:12;2.30;99.90
25568;DHT22;13455;51.480;7.594;2023-02-26T19:22:38;2.20;99.90
25568;DHT22;13455;51.480;7.594;2023-02-26T19:25:05;2.20;99.90
25568;DHT22;13455;51.480;7.594;2023-02-26T19:34:50;2.20;99.90
25568;DHT22;13455;51.480;7.594;2023-02-26T19:37:17;2.10;99.90
25568;DHT22;13455;51.480;7.594;2023-02-26T19:39:43;2.20;99.90
25568;DHT22;13455;51.480;7.594;2023-02-26T19:42:08;2.10;99.90
25568;DHT22;13455;51.480;7.594;2023-02-26T19:44:34;2.00;99.90
25568;DHT22;13455;51.480;7.594;2023-02-26T19:51:52;1.90;99.90
25568;DHT22;13455;51.480;7.594;2023-02-26T19:54:18;1.80;99.90
25568;DHT22;13455;51.480;7.594;2023-02-26T19:56:44;1.80;99.90
25568;DHT22;13455;51.480;7.594;2023-02-26T19:59:10;1.80;99.90
25568;DHT22;13455;51.480;7.594;2023-02-26T20:16:13;1.70;99.90
25568;DHT22;13455;51.480;7.594;2023-02-26T20:18:40;1.60;99.90
25568;DHT22;13455;51.480;7.594;2023-02-26T20:21:07;1.60;99.90
25568;DHT22;13455;51.480;7.594;2023-02-26T20:23:34;1.60;99.90
25568;DHT22;13455;51.480;7.594;2023-02-26T20:30:56;1.50;99.90
25568;DHT22;13455;51.480;7.594;2023-02-26T20:33:21;1.50;99.90
25568;DHT22;13455;51.480;7.594;2023-02-26T20:35:47;1.50;99.90
25568;DHT22;13455;51.480;7.594;2023-02-26T20:50:28;1.70;99.90
25568;DHT22;13455;51.480;7.594;2023-02-26T20:52:54;1.40;99.90
25568;DHT22;13455;51.480;7.594;2023-02-26T21:24:41;1.20;99.90
25568;DHT22;13455;51.480;7.594;2023-02-26T23:09:31;0.80;99.90
25568;DHT22;13455;51.480;7.594;2023-02-26T23:11:57;0.40;99.90
25568;DHT22;13455;51.480;7.594;2023-02-26T23:14:22;0.30;99.90
25568;DHT22;13455;51.480;7.594;2023-02-26T23:16:48;0.30;99.90
25568;DHT22;13455;51.480;7.594;2023-02-26T23:36:16;0.10;99.90
25568;DHT22;13455;51.480;7.594;2023-02-26T23:41:08;0.10;99.90
